Bonfield, Illinois
Current Conditions -  °F | °C
As of 1:55 AM on Friday 19 Dec 2014 (Local Time) from KIKK Reporting Station
Overcast Overcast  
Wind Chill: 19°   Ceiling: 2900
Heat Index: 25°   Visibility: 10mi
Dew Point: 22°   Wind: 5mph
Humidity: 87%   Direction: 270°W
Pressure: 30.29"   Gusts: NA
Location:  41.15°N, 88.06°W
Report Text: KIKK 190755Z AUTO 27004KT 10SM OVC029 M04/M06 A3029 RMK AO2 T10401058
Loading
Personal Weather Stations






























Interactive Weather Map New forecast layout! Learn more

10-Day Weather Forecast

Advertisements
Track Severe Weather on mobile